Time;durP1;ratioP1;P1;durP2;ratioP2;P2;SDS_P1;SDS_P2;PMS_P1;PMS_P2;Temp;Humidity;BMP_temperature;BMP_pressure;BME280_temperature;BME280_humidity;BME280_pressure;Samples;Min_cycle;Max_cycle;Signal;HPM_P1;HPM_P2
2021/03/22 00:00:42;;;;;;;11.20;8.43;;;7.20;99.90;;;;;;5072099;28;20209;-74
2021/03/22 00:03:11;;;;;;;12.20;9.60;;;7.20;99.90;;;;;;5071996;28;20263;-77
2021/03/22 00:05:37;;;;;;;10.27;8.10;;;7.10;99.90;;;;;;5072215;28;20215;-73
2021/03/22 00:08:05;;;;;;;9.57;8.30;;;7.10;99.90;;;;;;5072100;28;20206;-73
2021/03/22 00:10:34;;;;;;;11.73;7.90;;;7.00;99.90;;;;;;5071713;28;20238;-75
2021/03/22 00:13:02;;;;;;;11.37;8.50;;;7.00;99.90;;;;;;5072430;28;20202;-73
2021/03/22 00:15:31;;;;;;;10.33;8.33;;;6.90;99.90;;;;;;5073026;28;20234;-73
2021/03/22 00:17:58;;;;;;;10.57;8.57;;;6.90;99.90;;;;;;5072360;28;20202;-77
2021/03/22 00:20:27;;;;;;;9.93;8.00;;;6.90;99.90;;;;;;5071924;28;20202;-72
2021/03/22 00:22:53;;;;;;;8.77;7.53;;;6.90;99.90;;;;;;5071792;28;20561;-76
2021/03/22 00:25:21;;;;;;;10.83;8.33;;;6.90;99.90;;;;;;5071715;28;20214;-73
2021/03/22 00:27:48;;;;;;;12.40;7.93;;;6.90;99.90;;;;;;5072095;28;20206;-79
2021/03/22 00:30:20;;;;;;;9.10;7.80;;;6.80;99.90;;;;;;5071896;28;20669;-80
2021/03/22 00:32:46;;;;;;;11.40;8.13;;;6.80;99.90;;;;;;5073608;28;20210;-73
2021/03/22 00:35:14;;;;;;;9.00;8.10;;;6.80;99.90;;;;;;5075394;28;20206;-73
2021/03/22 00:37:41;;;;;;;11.50;8.63;;;6.70;99.90;;;;;;5073555;28;20202;-77
2021/03/22 00:40:09;;;;;;;10.17;8.63;;;6.60;99.90;;;;;;5071132;28;20213;-72
2021/03/22 00:42:35;;;;;;;11.23;9.80;;;6.60;99.90;;;;;;5072247;28;20206;-78
2021/03/22 00:45:02;;;;;;;11.53;8.83;;;6.60;99.90;;;;;;5072558;28;20213;-73
2021/03/22 00:47:28;;;;;;;10.33;8.10;;;6.50;99.90;;;;;;5071851;28;20236;-74
2021/03/22 00:49:55;;;;;;;10.97;8.50;;;6.40;99.90;;;;;;5070983;28;20625;-77
2021/03/22 00:52:21;;;;;;;10.27;8.47;;;6.40;99.90;;;;;;5070969;28;20289;-75
2021/03/22 00:54:49;;;;;;;11.10;9.27;;;6.40;99.90;;;;;;5071964;28;20229;-76
2021/03/22 00:57:15;;;;;;;9.83;7.93;;;6.40;99.90;;;;;;5071164;28;20210;-76
2021/03/22 00:59:42;;;;;;;9.73;8.43;;;6.40;99.90;;;;;;5071526;28;20665;-74
2021/03/22 01:02:08;;;;;;;9.93;8.73;;;6.30;99.90;;;;;;5071229;28;20583;-76
2021/03/22 01:04:35;;;;;;;10.07;8.23;;;6.30;99.90;;;;;;5070974;28;20202;-73
2021/03/22 01:07:01;;;;;;;13.00;9.63;;;6.20;99.90;;;;;;5071409;28;20228;-72
2021/03/22 01:09:28;;;;;;;11.23;8.93;;;6.20;99.90;;;;;;5071096;28;20222;-73
2021/03/22 01:11:56;;;;;;;9.93;8.87;;;6.30;99.90;;;;;;5070876;28;20744;-73
2021/03/22 01:14:23;;;;;;;10.97;8.97;;;6.30;99.90;;;;;;5070502;28;20637;-72
2021/03/22 01:16:49;;;;;;;10.70;8.30;;;6.30;99.90;;;;;;5070863;28;20739;-73
2021/03/22 01:19:26;;;;;;;11.23;8.57;;;6.20;99.90;;;;;;5070290;28;20202;-72
2021/03/22 01:21:56;;;;;;;9.57;7.73;;;6.20;99.90;;;;;;5070613;28;20201;-72
2021/03/22 01:24:25;;;;;;;11.30;8.50;;;6.30;99.90;;;;;;5070950;28;20218;-73
2021/03/22 01:26:54;;;;;;;10.60;8.40;;;6.20;99.90;;;;;;5070601;28;20252;-73
2021/03/22 01:29:26;;;;;;;12.40;9.07;;;6.20;99.90;;;;;;5070300;28;20217;-72
2021/03/22 01:31:56;;;;;;;11.47;9.67;;;6.10;99.90;;;;;;5070379;28;20210;-75
2021/03/22 01:34:23;;;;;;;11.03;8.67;;;6.20;99.90;;;;;;5070471;28;20540;-73
2021/03/22 01:36:50;;;;;;;10.47;8.90;;;6.20;99.90;;;;;;5070361;28;20673;-77
2021/03/22 01:39:19;;;;;;;11.90;8.93;;;6.20;99.90;;;;;;5070211;28;20677;-74
2021/03/22 01:42:06;;;;;;;10.27;9.13;;;6.10;99.90;;;;;;5070861;28;20206;-79
2021/03/22 01:44:35;;;;;;;11.67;9.23;;;6.00;99.90;;;;;;5059318;28;20213;-74
2021/03/22 01:47:06;;;;;;;11.03;8.77;;;6.00;99.90;;;;;;5070820;28;20271;-72
2021/03/22 01:49:38;;;;;;;12.83;10.93;;;6.10;99.90;;;;;;5070412;28;20226;-73
2021/03/22 01:52:06;;;;;;;13.03;11.43;;;6.00;99.90;;;;;;5069773;28;20202;-75
2021/03/22 01:54:33;;;;;;;12.17;9.27;;;6.00;99.90;;;;;;5070638;28;20209;-74
2021/03/22 01:57:31;;;;;;;9.40;8.50;;;6.00;99.90;;;;;;5070727;28;20217;-73
2021/03/22 02:00:13;;;;;;;13.27;9.57;;;6.00;99.90;;;;;;5060043;28;20210;-76
2021/03/22 02:02:41;;;;;;;12.80;9.30;;;6.10;99.90;;;;;;5070600;28;20260;-75
2021/03/22 02:05:10;;;;;;;13.03;10.87;;;6.00;99.90;;;;;;5070181;28;20209;-73
2021/03/22 02:07:37;;;;;;;12.07;10.10;;;6.00;99.90;;;;;;5070009;28;20213;-73
2021/03/22 02:10:04;;;;;;;12.37;11.07;;;5.90;99.90;;;;;;5070235;28;20237;-73
2021/03/22 02:12:31;;;;;;;13.37;10.60;;;5.90;99.90;;;;;;5070747;28;20202;-76
2021/03/22 02:14:58;;;;;;;11.67;10.10;;;6.00;99.90;;;;;;5070609;28;20708;-73
2021/03/22 02:17:34;;;;;;;14.17;11.10;;;5.90;99.90;;;;;;5070182;28;20566;-73
2021/03/22 02:20:40;;;;;;;16.07;11.87;;;5.90;99.90;;;;;;5070266;28;20201;-73
2021/03/22 02:23:56;;;;;;;13.10;10.83;;;5.80;99.90;;;;;;5067666;28;20210;-74
2021/03/22 02:26:49;;;;;;;13.13;10.47;;;5.80;99.90;;;;;;5070738;28;20214;-78
2021/03/22 02:29:42;;;;;;;16.93;10.63;;;5.80;99.90;;;;;;5058682;28;20210;-72
2021/03/22 02:32:41;;;;;;;12.83;10.90;;;5.80;99.90;;;;;;5069648;28;20205;-75
2021/03/22 02:35:15;;;;;;;13.63;11.17;;;5.90;99.90;;;;;;5069857;28;20210;-73
2021/03/22 02:37:53;;;;;;;15.77;11.53;;;5.90;99.90;;;;;;5070167;28;20217;-74
2021/03/22 02:40:28;;;;;;;14.27;10.30;;;5.80;99.90;;;;;;5069250;28;20212;-73
2021/03/22 02:42:56;;;;;;;14.03;11.30;;;5.80;99.90;;;;;;5072015;28;20269;-75
2021/03/22 02:45:26;;;;;;;14.30;11.03;;;5.70;99.90;;;;;;5070705;28;20704;-76
2021/03/22 02:47:52;;;;;;;13.97;10.90;;;5.70;99.90;;;;;;5069988;28;20698;-75
2021/03/22 02:50:23;;;;;;;17.47;12.03;;;5.70;99.90;;;;;;5069169;28;20241;-73
2021/03/22 02:53:18;;;;;;;17.57;12.13;;;5.70;99.90;;;;;;5069983;28;20577;-72
2021/03/22 02:55:58;;;;;;;15.30;11.57;;;5.60;99.90;;;;;;5069833;28;20300;-75
2021/03/22 02:58:31;;;;;;;13.73;11.97;;;5.60;99.90;;;;;;5069484;28;20213;-75
2021/03/22 03:01:03;;;;;;;17.30;12.27;;;5.60;99.90;;;;;;5068110;28;20198;-72
2021/03/22 03:03:32;;;;;;;14.47;10.30;;;5.60;99.90;;;;;;5069918;28;20289;-74
2021/03/22 03:05:59;;;;;;;14.83;11.47;;;5.60;99.90;;;;;;5070061;28;20247;-71
2021/03/22 03:08:30;;;;;;;15.37;10.57;;;5.60;99.90;;;;;;5055720;28;20212;-71
2021/03/22 03:10:57;;;;;;;15.07;11.30;;;5.60;99.90;;;;;;5069820;28;20229;-71
2021/03/22 03:13:24;;;;;;;17.27;12.60;;;5.50;99.90;;;;;;5072868;28;20210;-75
2021/03/22 03:15:50;;;;;;;15.63;12.43;;;5.50;99.90;;;;;;5073051;28;20225;-70
2021/03/22 03:18:17;;;;;;;17.67;12.90;;;5.50;99.90;;;;;;5072730;28;20257;-72
2021/03/22 03:20:44;;;;;;;16.20;11.40;;;5.40;99.90;;;;;;5073077;28;20207;-76
2021/03/22 03:23:12;;;;;;;13.73;11.90;;;5.50;99.90;;;;;;5072827;28;20248;-73
2021/03/22 03:25:38;;;;;;;14.47;12.40;;;5.40;99.90;;;;;;5072743;28;20779;-74
2021/03/22 03:28:05;;;;;;;16.93;12.20;;;5.40;99.90;;;;;;5072655;28;20584;-73
2021/03/22 03:30:35;;;;;;;19.03;13.50;;;5.30;99.90;;;;;;5072847;28;20240;-71
2021/03/22 03:33:03;;;;;;;14.17;11.67;;;5.30;99.90;;;;;;5072527;28;20305;-72
2021/03/22 03:35:31;;;;;;;15.90;11.47;;;5.30;99.90;;;;;;5073152;28;20579;-71
2021/03/22 03:37:58;;;;;;;21.17;13.27;;;5.20;99.90;;;;;;5073082;28;20205;-71
2021/03/22 03:40:29;;;;;;;15.90;11.37;;;5.20;99.90;;;;;;5072343;28;20210;-73
2021/03/22 03:42:56;;;;;;;16.83;10.60;;;5.20;99.90;;;;;;5072977;28;20202;-71
2021/03/22 03:45:24;;;;;;;14.70;12.63;;;5.20;99.90;;;;;;5072365;28;20210;-74
2021/03/22 03:47:51;;;;;;;15.87;12.00;;;5.20;99.90;;;;;;5072642;28;20251;-71
2021/03/22 03:50:22;;;;;;;16.57;12.27;;;5.30;99.90;;;;;;5072660;28;20272;-76
2021/03/22 03:52:49;;;;;;;17.13;12.33;;;5.30;99.90;;;;;;5072719;28;20264;-74
2021/03/22 03:55:18;;;;;;;18.23;11.93;;;5.20;99.90;;;;;;5071886;28;20572;-72
2021/03/22 03:57:46;;;;;;;17.30;12.60;;;5.30;99.90;;;;;;5072674;28;20567;-76
2021/03/22 04:00:22;;;;;;;16.63;12.97;;;5.30;99.90;;;;;;5071711;28;20259;-72
2021/03/22 04:02:48;;;;;;;16.27;12.43;;;5.30;99.90;;;;;;5072241;28;20688;-71
2021/03/22 04:05:15;;;;;;;16.70;13.07;;;5.30;99.90;;;;;;5071985;28;20621;-76
2021/03/22 04:07:42;;;;;;;13.80;10.93;;;5.30;99.90;;;;;;5072400;28;20210;-71
2021/03/22 04:10:11;;;;;;;14.90;11.73;;;5.30;99.90;;;;;;5071548;28;20245;-71
2021/03/22 04:12:37;;;;;;;17.13;13.10;;;5.30;99.90;;;;;;5072430;28;20213;-72
2021/03/22 04:15:06;;;;;;;17.67;12.17;;;5.30;99.90;;;;;;5071925;28;20206;-70
2021/03/22 04:17:33;;;;;;;15.60;13.17;;;5.10;99.90;;;;;;5072115;28;20216;-71
2021/03/22 04:19:59;;;;;;;18.63;13.73;;;5.00;99.90;;;;;;5072547;28;20256;-71
2021/03/22 04:22:26;;;;;;;17.23;13.90;;;5.00;99.90;;;;;;5071408;28;20205;-73
2021/03/22 04:24:53;;;;;;;15.97;13.13;;;5.00;99.90;;;;;;5071881;28;20221;-74
2021/03/22 04:27:19;;;;;;;16.80;14.13;;;5.00;99.90;;;;;;5071474;28;20297;-70
2021/03/22 04:29:46;;;;;;;19.37;14.47;;;5.10;99.90;;;;;;5071801;28;20241;-71
2021/03/22 04:32:13;;;;;;;16.03;13.23;;;5.00;99.90;;;;;;5071198;28;20217;-70
2021/03/22 04:34:40;;;;;;;18.83;14.80;;;5.10;99.90;;;;;;5071845;28;20674;-73
2021/03/22 04:37:07;;;;;;;22.17;14.93;;;5.10;99.90;;;;;;5071247;28;20263;-71
2021/03/22 04:39:34;;;;;;;19.30;14.20;;;5.10;99.90;;;;;;5071596;28;20560;-72
2021/03/22 04:42:00;;;;;;;18.57;12.90;;;5.10;99.90;;;;;;5071939;28;20210;-75
2021/03/22 04:44:27;;;;;;;17.83;13.87;;;5.10;99.90;;;;;;5070989;28;20213;-75
2021/03/22 04:46:53;;;;;;;17.33;13.50;;;5.10;99.90;;;;;;5071229;28;20229;-72
2021/03/22 04:49:21;;;;;;;20.33;14.00;;;4.90;99.90;;;;;;5071979;28;20214;-72
2021/03/22 04:51:47;;;;;;;18.97;14.20;;;4.90;99.90;;;;;;5072711;28;20233;-73
2021/03/22 04:54:14;;;;;;;21.43;14.50;;;4.80;99.90;;;;;;5071866;28;20209;-77
2021/03/22 04:56:40;;;;;;;17.40;13.00;;;4.70;99.90;;;;;;5071919;28;20251;-84
2021/03/22 04:59:07;;;;;;;22.00;14.17;;;4.90;99.90;;;;;;5071550;28;20214;-78
2021/03/22 05:01:33;;;;;;;17.90;12.83;;;4.90;99.90;;;;;;5071183;28;20645;-78
2021/03/22 05:03:59;;;;;;;19.03;12.90;;;4.80;99.90;;;;;;5071667;28;20206;-78
2021/03/22 05:06:27;;;;;;;21.93;14.90;;;4.80;99.90;;;;;;5070937;28;20202;-71
2021/03/22 05:08:56;;;;;;;20.07;14.23;;;4.80;99.90;;;;;;5071346;28;20210;-71
2021/03/22 05:11:22;;;;;;;19.77;14.90;;;4.80;99.90;;;;;;5070950;28;20261;-72
2021/03/22 05:13:49;;;;;;;19.43;14.87;;;4.70;99.90;;;;;;5070595;28;20735;-71
2021/03/22 05:16:15;;;;;;;19.20;14.50;;;4.60;99.90;;;;;;5070583;28;20202;-76
2021/03/22 05:18:42;;;;;;;21.17;15.87;;;4.60;99.90;;;;;;5070574;28;20209;-74
2021/03/22 05:21:09;;;;;;;20.40;15.10;;;4.70;99.90;;;;;;5070860;28;20206;-71
2021/03/22 05:23:40;;;;;;;19.33;14.00;;;4.70;99.90;;;;;;5071128;28;20240;-71
2021/03/22 05:26:07;;;;;;;21.57;15.17;;;4.80;99.90;;;;;;5070666;28;20202;-73
2021/03/22 05:28:35;;;;;;;20.00;15.20;;;4.80;99.90;;;;;;5069980;28;20210;-83
2021/03/22 05:31:03;;;;;;;19.47;15.13;;;4.90;99.90;;;;;;5069545;28;20278;-80
2021/03/22 05:33:30;;;;;;;21.77;15.23;;;5.00;99.90;;;;;;5071095;28;20210;-79
2021/03/22 05:35:59;;;;;;;21.37;15.10;;;5.00;99.90;;;;;;5069870;28;20289;-80
2021/03/22 05:38:26;;;;;;;22.23;15.80;;;5.10;99.90;;;;;;5070125;28;20217;-80
2021/03/22 05:40:55;;;;;;;21.50;15.07;;;5.00;99.90;;;;;;5070636;28;20217;-80
2021/03/22 05:43:50;;;;;;;21.97;16.07;;;4.90;99.90;;;;;;5070248;28;20213;-78
2021/03/22 05:46:27;;;;;;;22.40;16.37;;;5.10;99.90;;;;;;5069998;28;20229;-81
2021/03/22 05:49:33;;;;;;;24.20;16.73;;;5.00;99.90;;;;;;5070690;28;20214;-78
2021/03/22 05:52:12;;;;;;;22.97;15.57;;;5.10;99.90;;;;;;5059952;28;20665;-82
2021/03/22 05:55:02;;;;;;;27.13;16.70;;;5.10;99.90;;;;;;5070220;28;20575;-82
2021/03/22 05:57:42;;;;;;;23.40;17.23;;;5.00;99.90;;;;;;5070410;28;20620;-78
2021/03/22 06:00:26;;;;;;;26.17;16.77;;;5.00;99.90;;;;;;5056597;28;20740;-71
2021/03/22 06:02:58;;;;;;;21.80;16.67;;;5.10;99.90;;;;;;5070301;28;20668;-75
2021/03/22 06:05:38;;;;;;;23.13;15.57;;;5.20;99.90;;;;;;5069866;28;20228;-70
2021/03/22 06:08:19;;;;;;;22.30;16.37;;;5.20;99.90;;;;;;5069557;28;20673;-71
2021/03/22 06:10:50;;;;;;;23.87;16.17;;;5.20;99.90;;;;;;5070033;28;20603;-71
2021/03/22 06:13:22;;;;;;;23.80;17.33;;;5.20;99.90;;;;;;5069834;28;20647;-71
2021/03/22 06:15:55;;;;;;;20.87;15.97;;;5.20;99.90;;;;;;5070099;28;20206;-72
2021/03/22 06:18:27;;;;;;;21.47;17.23;;;5.20;99.90;;;;;;5070073;28;20201;-76
2021/03/22 06:20:55;;;;;;;25.63;18.07;;;5.20;99.90;;;;;;5070089;28;20202;-72
2021/03/22 06:23:26;;;;;;;25.67;18.40;;;5.20;99.90;;;;;;5069685;28;20206;-72
2021/03/22 06:25:53;;;;;;;27.17;17.77;;;5.20;99.90;;;;;;5069763;28;20228;-74
2021/03/22 06:28:24;;;;;;;23.87;15.40;;;5.20;99.90;;;;;;5069817;28;20259;-72
2021/03/22 06:31:01;;;;;;;21.23;17.33;;;5.20;99.90;;;;;;5069210;28;20214;-73
2021/03/22 06:33:30;;;;;;;23.97;17.33;;;5.40;99.90;;;;;;5069923;28;20202;-75
2021/03/22 06:35:57;;;;;;;25.83;17.40;;;5.50;99.90;;;;;;5068400;28;20206;-73
2021/03/22 06:38:24;;;;;;;25.00;17.40;;;5.40;99.90;;;;;;5069027;28;20513;-74
2021/03/22 06:40:50;;;;;;;24.43;18.17;;;5.50;99.90;;;;;;5069476;28;20263;-75
2021/03/22 06:43:20;;;;;;;26.23;17.93;;;5.60;99.90;;;;;;5069822;28;20270;-79
2021/03/22 06:45:49;;;;;;;26.10;18.43;;;5.70;99.90;;;;;;5069711;28;20213;-77
2021/03/22 06:48:23;;;;;;;24.33;18.00;;;5.80;99.90;;;;;;5073237;28;20217;-75
2021/03/22 06:50:51;;;;;;;26.10;18.50;;;5.90;99.90;;;;;;5073866;28;20660;-79
2021/03/22 06:53:37;;;;;;;24.70;17.40;;;5.90;99.90;;;;;;5073659;28;20235;-78
2021/03/22 06:56:20;;;;;;;24.60;16.13;;;5.90;99.90;;;;;;5073329;28;20205;-72
2021/03/22 06:58:48;;;;;;;24.50;16.17;;;6.00;99.90;;;;;;5073855;28;20210;-77
2021/03/22 07:01:25;;;;;;;22.00;16.83;;;6.10;99.90;;;;;;5073184;28;20210;-77
2021/03/22 07:03:52;;;;;;;25.00;16.73;;;6.10;99.90;;;;;;5074035;28;20681;-78
2021/03/22 07:06:21;;;;;;;20.90;18.10;;;6.20;99.90;;;;;;5073314;28;20716;-83
2021/03/22 07:08:48;;;;;;;22.13;17.07;;;6.10;99.90;;;;;;5073849;28;20256;-76
2021/03/22 07:11:17;;;;;;;21.90;17.07;;;6.20;99.90;;;;;;5072606;28;20226;-74
2021/03/22 07:13:59;;;;;;;25.33;17.47;;;6.30;99.90;;;;;;5073092;28;20681;-76
2021/03/22 07:16:28;;;;;;;24.70;16.37;;;6.40;99.90;;;;;;5071582;28;20209;-74
2021/03/22 07:19:13;;;;;;;22.53;18.30;;;6.60;99.90;;;;;;5070479;28;20256;-73
2021/03/22 07:21:47;;;;;;;26.37;18.17;;;6.70;99.90;;;;;;5073011;28;20244;-76
2021/03/22 07:24:19;;;;;;;25.40;18.20;;;6.80;99.90;;;;;;5072095;28;20608;-80
2021/03/22 07:27:03;;;;;;;24.80;16.87;;;6.80;99.90;;;;;;5072050;28;20215;-73
2021/03/22 07:29:58;;;;;;;22.97;16.67;;;6.80;99.90;;;;;;5064960;28;20218;-76
2021/03/22 07:32:50;;;;;;;25.43;18.30;;;6.90;99.90;;;;;;5068070;28;20296;-76
2021/03/22 07:35:56;;;;;;;24.27;16.60;;;6.90;99.90;;;;;;5065348;28;20198;-81
2021/03/22 07:38:50;;;;;;;24.00;17.47;;;7.10;99.90;;;;;;5072247;28;20210;-77
2021/03/22 07:41:25;;;;;;;24.57;18.87;;;7.20;99.90;;;;;;5069732;28;20649;-78
2021/03/22 07:44:14;;;;;;;26.57;18.37;;;7.30;99.90;;;;;;5072710;28;20210;-76
2021/03/22 07:46:58;;;;;;;23.20;18.30;;;7.30;99.90;;;;;;5072333;28;20214;-76
2021/03/22 07:49:37;;;;;;;21.70;17.07;;;7.40;99.90;;;;;;5071361;28;20296;-78
2021/03/22 07:52:17;;;;;;;26.57;18.77;;;7.30;99.90;;;;;;5067941;28;20226;-73
2021/03/22 07:54:51;;;;;;;22.60;17.97;;;7.50;99.90;;;;;;5072158;28;20210;-77
2021/03/22 07:57:28;;;;;;;22.90;17.67;;;7.60;99.90;;;;;;5063068;28;20202;-78
2021/03/22 08:00:05;;;;;;;23.60;17.70;;;7.60;99.90;;;;;;5071988;28;20198;-73
2021/03/22 08:02:41;;;;;;;23.30;19.00;;;7.60;99.90;;;;;;5072671;28;20202;-77
2021/03/22 08:05:21;;;;;;;23.97;17.87;;;7.70;99.90;;;;;;5071836;28;20206;-76
2021/03/22 08:07:59;;;;;;;24.57;18.50;;;8.00;99.90;;;;;;5070296;28;20201;-72
2021/03/22 08:10:43;;;;;;;24.80;18.53;;;8.20;99.90;;;;;;5069311;28;20419;-74
2021/03/22 08:13:31;;;;;;;24.63;18.17;;;8.50;99.90;;;;;;5069784;28;20198;-76
2021/03/22 08:16:08;;;;;;;23.53;17.03;;;8.80;99.90;;;;;;5062144;28;20561;-75
2021/03/22 08:18:39;;;;;;;21.80;16.17;;;9.10;99.90;;;;;;5070994;28;20210;-77
2021/03/22 08:21:10;;;;;;;22.47;17.90;;;9.10;99.90;;;;;;5070381;28;20202;-74
2021/03/22 08:23:52;;;;;;;23.90;18.30;;;9.00;99.90;;;;;;5071745;28;20206;-75
2021/03/22 08:26:24;;;;;;;22.33;18.20;;;9.00;99.90;;;;;;5069710;28;20210;-76
2021/03/22 08:29:01;;;;;;;20.80;16.47;;;8.90;99.90;;;;;;5072001;28;20626;-73
2021/03/22 08:31:37;;;;;;;26.13;18.43;;;9.10;99.90;;;;;;5071728;28;20226;-73
2021/03/22 08:34:10;;;;;;;24.17;18.00;;;8.90;99.90;;;;;;5071481;28;20247;-73
2021/03/22 08:36:49;;;;;;;28.73;19.47;;;9.00;99.90;;;;;;5071372;28;20211;-73
2021/03/22 08:39:24;;;;;;;22.00;17.07;;;9.20;99.90;;;;;;5071197;28;20202;-72
2021/03/22 08:42:11;;;;;;;24.43;17.43;;;9.30;99.90;;;;;;5071443;28;20703;-75
2021/03/22 08:44:42;;;;;;;21.30;17.23;;;9.70;99.90;;;;;;5071486;28;20284;-73
2021/03/22 08:47:20;;;;;;;20.60;16.80;;;10.00;99.90;;;;;;5070895;28;20230;-73
2021/03/22 08:49:53;;;;;;;22.97;18.90;;;10.00;99.90;;;;;;5071281;28;20213;-74
2021/03/22 08:52:26;;;;;;;17.73;15.27;;;10.00;99.90;;;;;;5070706;28;20210;-72
2021/03/22 08:55:08;;;;;;;21.43;16.23;;;10.30;99.90;;;;;;5071210;28;20199;-74
2021/03/22 08:57:40;;;;;;;20.17;17.63;;;10.70;99.90;;;;;;5069664;28;20202;-73
2021/03/22 09:00:32;;;;;;;21.40;16.97;;;10.50;99.90;;;;;;5061804;28;20202;-73
2021/03/22 09:03:03;;;;;;;22.40;16.10;;;10.10;99.90;;;;;;5069341;28;20198;-75
2021/03/22 09:05:33;;;;;;;22.67;17.50;;;10.30;99.90;;;;;;5071600;28;20214;-73
2021/03/22 09:08:20;;;;;;;20.90;18.67;;;10.30;99.90;;;;;;5070813;28;20248;-73
2021/03/22 09:10:48;;;;;;;19.63;14.77;;;10.70;99.90;;;;;;5070283;28;20664;-74
2021/03/22 09:13:37;;;;;;;19.40;15.97;;;10.60;99.90;;;;;;5070665;28;20206;-73
2021/03/22 09:16:38;;;;;;;20.07;15.57;;;11.20;99.90;;;;;;5070765;28;20210;-73
2021/03/22 09:19:21;;;;;;;21.07;17.23;;;10.90;99.90;;;;;;5070379;28;20238;-74
2021/03/22 09:21:51;;;;;;;18.87;16.57;;;10.90;99.90;;;;;;5062238;28;20210;-73
2021/03/22 09:24:49;;;;;;;20.57;15.07;;;11.30;99.90;;;;;;5070293;28;20217;-72
2021/03/22 09:27:33;;;;;;;22.27;15.90;;;12.40;99.90;;;;;;5070521;28;20293;-72
2021/03/22 09:30:38;;;;;;;17.37;15.07;;;13.10;99.90;;;;;;5071075;28;20285;-73
2021/03/22 09:33:05;;;;;;;21.17;15.40;;;14.40;99.90;;;;;;5061417;28;20206;-76
2021/03/22 09:36:11;;;;;;;18.93;15.87;;;13.60;99.90;;;;;;5070596;28;20677;-73
2021/03/22 09:38:48;;;;;;;21.23;17.00;;;13.30;99.90;;;;;;5069827;28;20686;-74
2021/03/22 09:41:16;;;;;;;23.50;16.07;;;13.20;99.90;;;;;;5066757;28;20301;-74
2021/03/22 09:44:09;;;;;;;19.63;15.00;;;12.70;99.90;;;;;;5068556;28;20205;-80
2021/03/22 09:46:37;;;;;;;19.27;15.00;;;13.30;99.90;;;;;;5068146;28;20233;-81
2021/03/22 09:49:23;;;;;;;19.75;15.55;;;13.40;99.90;;;;;;5070042;28;20210;-72
2021/03/22 09:51:55;;;;;;;20.10;15.73;;;12.70;99.90;;;;;;5065886;28;20222;-75
2021/03/22 09:54:38;;;;;;;19.80;15.40;;;12.50;99.90;;;;;;5068709;28;20214;-74
2021/03/22 09:57:40;;;;;;;23.53;15.37;;;12.20;99.90;;;;;;5068919;28;20240;-73
2021/03/22 10:00:23;;;;;;;18.77;14.80;;;12.60;99.90;;;;;;5064058;28;20201;-76
2021/03/22 10:02:51;;;;;;;18.85;15.00;;;13.00;99.90;;;;;;5069944;28;20255;-73
2021/03/22 10:05:21;;;;;;;23.35;15.73;;;12.70;99.90;;;;;;5068467;28;20210;-75
2021/03/22 10:08:01;;;;;;;18.48;14.65;;;12.40;99.90;;;;;;5070037;28;20653;-72
2021/03/22 10:10:35;;;;;;;17.67;15.77;;;12.20;99.90;;;;;;5067350;28;20689;-73
2021/03/22 10:13:08;;;;;;;20.10;15.98;;;11.40;99.90;;;;;;5070770;28;20206;-76
2021/03/22 10:15:46;;;;;;;17.33;14.27;;;11.30;99.90;;;;;;5069789;28;20244;-74
2021/03/22 10:18:21;;;;;;;17.53;13.83;;;10.90;99.90;;;;;;5069597;28;20202;-78
2021/03/22 10:20:49;;;;;;;22.40;13.87;;;11.30;99.90;;;;;;5069149;28;20210;-78
2021/03/22 10:23:23;;;;;;;17.87;13.07;;;11.30;99.90;;;;;;5073160;28;20206;-72
2021/03/22 10:25:52;;;;;;;16.10;13.47;;;11.80;99.90;;;;;;5072886;28;20209;-73
2021/03/22 10:28:25;;;;;;;15.83;12.87;;;11.10;99.90;;;;;;5073566;28;20214;-73
2021/03/22 10:31:01;;;;;;;13.23;11.83;;;11.40;99.90;;;;;;5073591;28;20392;-74
2021/03/22 10:33:29;;;;;;;17.97;12.93;;;12.40;99.90;;;;;;5071876;28;20197;-78
2021/03/22 10:35:58;;;;;;;16.10;13.30;;;12.10;99.90;;;;;;5064440;28;20213;-71
2021/03/22 10:38:27;;;;;;;19.70;14.57;;;12.20;99.90;;;;;;5070971;28;20210;-71
2021/03/22 10:40:56;;;;;;;16.47;11.73;;;12.40;99.90;;;;;;5070718;28;20689;-78
2021/03/22 10:43:26;;;;;;;16.60;12.80;;;12.50;99.90;;;;;;5072451;28;20210;-74
2021/03/22 10:45:53;;;;;;;18.27;13.63;;;12.60;99.90;;;;;;5072106;28;20214;-73
2021/03/22 10:48:25;;;;;;;17.33;12.80;;;12.70;99.90;;;;;;5072005;28;20213;-74
2021/03/22 10:51:11;;;;;;;16.17;11.23;;;13.10;99.90;;;;;;5071042;28;20242;-73
2021/03/22 10:53:53;;;;;;;13.48;11.85;;;13.50;99.90;;;;;;5072251;28;20552;-76
2021/03/22 10:56:24;;;;;;;14.35;12.15;;;13.30;99.90;;;;;;5071725;28;20202;-75
2021/03/22 10:58:51;;;;;;;16.03;11.77;;;13.10;99.90;;;;;;5071247;28;20198;-72
2021/03/22 11:01:20;;;;;;;16.92;12.75;;;13.30;99.90;;;;;;5071196;28;20206;-74
2021/03/22 11:03:49;;;;;;;14.02;12.55;;;13.10;99.90;;;;;;5073124;28;20206;-76
2021/03/22 11:06:29;;;;;;;16.52;13.52;;;12.70;99.90;;;;;;5072184;28;20210;-75
2021/03/22 11:08:59;;;;;;;15.33;13.07;;;12.40;99.90;;;;;;5071774;28;20251;-74
2021/03/22 11:11:29;;;;;;;15.95;10.38;;;12.20;99.90;;;;;;5071813;28;20593;-76
2021/03/22 11:13:58;;;;;;;13.82;12.10;;;12.30;99.90;;;;;;5062749;28;20690;-80
2021/03/22 11:16:29;;;;;;;17.58;13.15;;;12.20;99.90;;;;;;5072184;28;20215;-74
2021/03/22 11:18:57;;;;;;;14.70;11.40;;;12.30;99.90;;;;;;5070392;28;20259;-70
2021/03/22 11:21:25;;;;;;;14.03;11.90;;;12.80;99.90;;;;;;5072405;28;20214;-78
2021/03/22 11:23:57;;;;;;;11.00;9.40;;;13.00;99.90;;;;;;5072829;28;20210;-71
2021/03/22 11:26:26;;;;;;;15.23;12.73;;;12.40;99.90;;;;;;5072196;28;20271;-77
2021/03/22 11:29:13;;;;;;;13.50;11.10;;;11.70;99.90;;;;;;5072535;28;20210;-71
2021/03/22 11:31:43;;;;;;;11.30;9.53;;;12.00;99.90;;;;;;5067787;28;20263;-74
2021/03/22 11:34:16;;;;;;;15.33;10.47;;;12.50;99.90;;;;;;5071362;28;20210;-74
2021/03/22 11:36:45;;;;;;;13.47;10.33;;;12.20;99.90;;;;;;5072638;28;20237;-72
2021/03/22 11:39:22;;;;;;;11.13;9.13;;;12.30;99.90;;;;;;5072393;28;20625;-72
2021/03/22 11:42:05;;;;;;;14.40;12.27;;;12.40;99.90;;;;;;5072669;28;20296;-71
2021/03/22 11:44:34;;;;;;;16.10;12.73;;;12.50;99.90;;;;;;5071067;28;20206;-74
2021/03/22 11:47:34;;;;;;;15.03;10.20;;;12.10;99.90;;;;;;5072834;28;20309;-73
2021/03/22 11:50:02;;;;;;;16.53;10.63;;;11.90;99.90;;;;;;5072946;28;20214;-75
2021/03/22 11:52:31;;;;;;;13.67;11.63;;;11.90;99.90;;;;;;5070511;28;20226;-75
2021/03/22 11:55:00;;;;;;;13.17;10.70;;;12.10;99.90;;;;;;5060447;28;20214;-72
2021/03/22 11:57:29;;;;;;;13.70;11.60;;;12.00;99.90;;;;;;5071925;28;20612;-74
2021/03/22 11:59:58;;;;;;;14.73;10.30;;;12.20;99.90;;;;;;5071636;28;20206;-74
2021/03/22 12:02:40;;;;;;;15.30;10.63;;;12.10;99.90;;;;;;5071843;28;20268;-73
2021/03/22 12:05:27;;;;;;;13.17;10.40;;;12.20;99.90;;;;;;5071620;28;20203;-74
2021/03/22 12:07:54;;;;;;;12.40;9.73;;;12.00;99.90;;;;;;5066677;28;20736;-73
2021/03/22 12:10:25;;;;;;;11.67;10.03;;;12.10;99.90;;;;;;5071671;28;20202;-76
2021/03/22 12:12:51;;;;;;;16.67;10.77;;;12.50;99.90;;;;;;5068200;28;20550;-74
2021/03/22 12:15:19;;;;;;;11.70;9.77;;;12.70;99.90;;;;;;5064321;28;20210;-75
2021/03/22 12:17:53;;;;;;;11.40;9.73;;;12.60;99.90;;;;;;5070780;28;20206;-75
2021/03/22 12:20:24;;;;;;;13.00;9.70;;;13.20;99.90;;;;;;5070993;28;20210;-74
2021/03/22 12:22:50;;;;;;;17.07;11.23;;;13.70;99.90;;;;;;5068987;28;20202;-71
2021/03/22 12:25:19;;;;;;;13.23;9.93;;;13.90;99.90;;;;;;5069389;28;20210;-74
2021/03/22 12:27:46;;;;;;;11.83;9.53;;;13.50;99.90;;;;;;5070791;28;20202;-72
2021/03/22 12:30:14;;;;;;;9.93;8.90;;;13.00;99.90;;;;;;5068147;28;20254;-72
2021/03/22 12:32:40;;;;;;;10.48;8.32;;;13.30;99.90;;;;;;5068826;28;20211;-71
2021/03/22 12:35:13;;;;;;;9.93;8.77;;;12.80;99.90;;;;;;5068673;28;20217;-71
2021/03/22 12:37:43;;;;;;;10.03;8.63;;;12.60;99.90;;;;;;5066537;28;20229;-72
2021/03/22 12:40:12;;;;;;;10.93;9.33;;;12.70;99.90;;;;;;5070609;28;20202;-73
2021/03/22 12:42:41;;;;;;;11.43;10.07;;;12.80;99.90;;;;;;5070372;28;20288;-73
2021/03/22 12:45:09;;;;;;;13.50;10.07;;;13.20;99.90;;;;;;5067482;28;20669;-70
2021/03/22 12:47:36;;;;;;;11.60;10.27;;;13.60;99.90;;;;;;5070783;28;20214;-72
2021/03/22 12:50:14;;;;;;;11.50;9.98;;;13.60;99.90;;;;;;5071496;28;20205;-71
2021/03/22 12:52:41;;;;;;;11.18;9.40;;;12.70;99.90;;;;;;5070299;28;20678;-70
2021/03/22 12:55:09;;;;;;;11.20;9.27;;;12.60;99.90;;;;;;5068594;28;20256;-72
2021/03/22 12:57:35;;;;;;;16.93;10.97;;;12.90;99.90;;;;;;5070578;28;20206;-70
2021/03/22 13:00:05;;;;;;;11.48;9.43;;;13.10;99.90;;;;;;5070177;28;20244;-71
2021/03/22 13:02:33;;;;;;;11.13;9.07;;;13.30;99.90;;;;;;5069796;28;20692;-73
2021/03/22 13:04:59;;;;;;;13.98;10.15;;;13.50;99.90;;;;;;5071095;28;20198;-73